sensor_id;sensor_type;location;lat;lon;timestamp;temperature;humidity
29007;DHT22;16104;48.642;9.008;2023-06-24T01:02:18;19.00;52.00
29007;DHT22;16104;48.642;9.008;2023-06-24T01:07:14;18.90;52.10
29007;DHT22;16104;48.642;9.008;2023-06-24T01:12:11;18.90;52.60
29007;DHT22;16104;48.642;9.008;2023-06-24T02:02:55;18.30;53.50
29007;DHT22;16104;48.642;9.008;2023-06-24T02:07:52;18.30;53.90
29007;DHT22;16104;48.642;9.008;2023-06-24T02:12:50;18.20;53.90
29007;DHT22;16104;48.642;9.008;2023-06-24T03:03:35;17.70;55.00
29007;DHT22;16104;48.642;9.008;2023-06-24T03:08:31;17.60;55.00
29007;DHT22;16104;48.642;9.008;2023-06-24T03:13:27;17.60;55.10
29007;DHT22;16104;48.642;9.008;2023-06-24T03:18:22;17.50;55.50
29007;DHT22;16104;48.642;9.008;2023-06-24T03:23:18;17.40;55.60
29007;DHT22;16104;48.642;9.008;2023-06-24T03:28:13;17.40;55.90
29007;DHT22;16104;48.642;9.008;2023-06-24T03:33:09;17.30;55.90
29007;DHT22;16104;48.642;9.008;2023-06-24T03:38:04;17.30;55.90
29007;DHT22;16104;48.642;9.008;2023-06-24T03:43:00;17.20;56.20
29007;DHT22;16104;48.642;9.008;2023-06-24T03:47:55;17.20;56.20
29007;DHT22;16104;48.642;9.008;2023-06-24T03:52:51;17.20;56.50
29007;DHT22;16104;48.642;9.008;2023-06-24T03:57:46;17.20;56.70
29007;DHT22;16104;48.642;9.008;2023-06-24T04:02:42;17.20;57.00
29007;DHT22;16104;48.642;9.008;2023-06-24T04:07:38;17.20;57.40
29007;DHT22;16104;48.642;9.008;2023-06-24T04:12:35;17.20;57.40
29007;DHT22;16104;48.642;9.008;2023-06-24T04:17:31;17.30;57.40
29007;DHT22;16104;48.642;9.008;2023-06-24T04:22:26;17.40;57.40
29007;DHT22;16104;48.642;9.008;2023-06-24T04:27:22;17.40;57.40
29007;DHT22;16104;48.642;9.008;2023-06-24T04:32:17;17.40;57.30
29007;DHT22;16104;48.642;9.008;2023-06-24T04:37:13;17.50;57.40
29007;DHT22;16104;48.642;9.008;2023-06-24T04:42:09;17.50;57.20
29007;DHT22;16104;48.642;9.008;2023-06-24T04:47:05;17.50;57.20
29007;DHT22;16104;48.642;9.008;2023-06-24T04:52:01;17.60;57.30
29007;DHT22;16104;48.642;9.008;2023-06-24T04:56:57;17.70;57.60
29007;DHT22;16104;48.642;9.008;2023-06-24T05:01:52;17.70;57.70
29007;DHT22;16104;48.642;9.008;2023-06-24T05:06:48;17.80;57.90
29007;DHT22;16104;48.642;9.008;2023-06-24T05:11:43;17.90;57.50
29007;DHT22;16104;48.642;9.008;2023-06-24T05:16:39;18.00;57.50
29007;DHT22;16104;48.642;9.008;2023-06-24T05:21:34;18.10;57.60
29007;DHT22;16104;48.642;9.008;2023-06-24T05:26:30;18.20;57.70
29007;DHT22;16104;48.642;9.008;2023-06-24T05:31:25;18.40;57.70
29007;DHT22;16104;48.642;9.008;2023-06-24T05:36:21;18.60;57.60
29007;DHT22;16104;48.642;9.008;2023-06-24T05:41:16;18.80;57.60
29007;DHT22;16104;48.642;9.008;2023-06-24T05:46:12;18.90;57.50
29007;DHT22;16104;48.642;9.008;2023-06-24T05:51:07;19.10;57.30
29007;DHT22;16104;48.642;9.008;2023-06-24T05:56:04;19.30;57.50
29007;DHT22;16104;48.642;9.008;2023-06-24T06:00:59;19.50;57.10
29007;DHT22;16104;48.642;9.008;2023-06-24T06:05:56;19.80;57.10
29007;DHT22;16104;48.642;9.008;2023-06-24T06:10:52;19.90;56.40
29007;DHT22;16104;48.642;9.008;2023-06-24T06:15:47;20.20;56.40
29007;DHT22;16104;48.642;9.008;2023-06-24T06:20:42;20.30;56.10
29007;DHT22;16104;48.642;9.008;2023-06-24T06:25:38;20.50;55.90
29007;DHT22;16104;48.642;9.008;2023-06-24T06:30:34;20.70;55.60
29007;DHT22;16104;48.642;9.008;2023-06-24T06:35:29;20.90;55.20
29007;DHT22;16104;48.642;9.008;2023-06-24T06:40:25;21.10;54.70
29007;DHT22;16104;48.642;9.008;2023-06-24T06:45:23;21.30;54.40
29007;DHT22;16104;48.642;9.008;2023-06-24T06:50:19;21.50;54.10
29007;DHT22;16104;48.642;9.008;2023-06-24T06:55:14;21.70;53.80
29007;DHT22;16104;48.642;9.008;2023-06-24T07:00:10;21.90;53.00
29007;DHT22;16104;48.642;9.008;2023-06-24T07:05:06;22.10;52.40
29007;DHT22;16104;48.642;9.008;2023-06-24T07:10:02;22.30;51.50
29007;DHT22;16104;48.642;9.008;2023-06-24T07:14:57;22.50;51.40
29007;DHT22;16104;48.642;9.008;2023-06-24T07:19:53;22.70;50.70
29007;DHT22;16104;48.642;9.008;2023-06-24T07:24:48;22.90;50.30
29007;DHT22;16104;48.642;9.008;2023-06-24T07:29:44;23.10;49.70
29007;DHT22;16104;48.642;9.008;2023-06-24T07:34:39;23.30;49.40
29007;DHT22;16104;48.642;9.008;2023-06-24T07:39:35;23.50;48.90
29007;DHT22;16104;48.642;9.008;2023-06-24T07:44:30;23.70;48.30
29007;DHT22;16104;48.642;9.008;2023-06-24T07:49:26;23.90;48.50
29007;DHT22;16104;48.642;9.008;2023-06-24T07:54:21;24.10;47.60
29007;DHT22;16104;48.642;9.008;2023-06-24T07:59:17;24.30;47.40
29007;DHT22;16104;48.642;9.008;2023-06-24T08:04:14;24.50;46.70
29007;DHT22;16104;48.642;9.008;2023-06-24T08:09:09;24.70;46.70
29007;DHT22;16104;48.642;9.008;2023-06-24T08:14:05;24.90;46.30
29007;DHT22;16104;48.642;9.008;2023-06-24T08:19:01;25.10;46.30
29007;DHT22;16104;48.642;9.008;2023-06-24T08:23:56;25.30;45.60
29007;DHT22;16104;48.642;9.008;2023-06-24T08:28:52;25.60;45.80
29007;DHT22;16104;48.642;9.008;2023-06-24T08:33:52;25.80;45.40
29007;DHT22;16104;48.642;9.008;2023-06-24T08:38:48;26.00;44.10
29007;DHT22;16104;48.642;9.008;2023-06-24T08:43:44;26.20;45.10
29007;DHT22;16104;48.642;9.008;2023-06-24T08:48:42;26.50;44.10
29007;DHT22;16104;48.642;9.008;2023-06-24T08:53:39;26.70;43.40
29007;DHT22;16104;48.642;9.008;2023-06-24T08:58:37;26.90;43.60
29007;DHT22;16104;48.642;9.008;2023-06-24T09:03:33;27.10;42.50
29007;DHT22;16104;48.642;9.008;2023-06-24T09:08:28;27.40;41.90
29007;DHT22;16104;48.642;9.008;2023-06-24T09:13:34;27.50;41.70
29007;DHT22;16104;48.642;9.008;2023-06-24T09:25:03;28.00;39.40
29007;DHT22;16104;48.642;9.008;2023-06-24T09:35:24;28.40;39.80
29007;DHT22;16104;48.642;9.008;2023-06-24T09:40:20;28.60;38.50
29007;DHT22;16104;48.642;9.008;2023-06-24T09:45:20;28.80;38.00
29007;DHT22;16104;48.642;9.008;2023-06-24T09:50:16;29.00;37.30
29007;DHT22;16104;48.642;9.008;2023-06-24T09:55:16;29.20;38.00
29007;DHT22;16104;48.642;9.008;2023-06-24T10:00:18;29.30;37.20
29007;DHT22;16104;48.642;9.008;2023-06-24T10:05:14;29.40;36.30
29007;DHT22;16104;48.642;9.008;2023-06-24T10:10:10;29.50;37.60
29007;DHT22;16104;48.642;9.008;2023-06-24T10:15:06;29.80;36.80
29007;DHT22;16104;48.642;9.008;2023-06-24T10:20:05;29.90;36.40
29007;DHT22;16104;48.642;9.008;2023-06-24T10:25:04;30.00;35.90
29007;DHT22;16104;48.642;9.008;2023-06-24T10:30:02;30.10;36.40
29007;DHT22;16104;48.642;9.008;2023-06-24T10:34:59;30.30;35.70
29007;DHT22;16104;48.642;9.008;2023-06-24T10:40:01;30.50;34.40
29007;DHT22;16104;48.642;9.008;2023-06-24T10:44:59;30.70;32.90
29007;DHT22;16104;48.642;9.008;2023-06-24T10:49:55;30.90;33.00
29007;DHT22;16104;48.642;9.008;2023-06-24T10:54:52;31.20;34.10
29007;DHT22;16104;48.642;9.008;2023-06-24T10:59:48;31.40;33.80
29007;DHT22;16104;48.642;9.008;2023-06-24T11:04:52;31.70;33.20
29007;DHT22;16104;48.642;9.008;2023-06-24T11:09:52;31.90;31.10
29007;DHT22;16104;48.642;9.008;2023-06-24T11:14:48;32.20;31.10
29007;DHT22;16104;48.642;9.008;2023-06-24T11:19:44;32.40;31.90
29007;DHT22;16104;48.642;9.008;2023-06-24T11:24:39;32.60;31.80
29007;DHT22;16104;48.642;9.008;2023-06-24T11:29:35;32.90;31.00
29007;DHT22;16104;48.642;9.008;2023-06-24T11:34:30;33.10;31.20
29007;DHT22;16104;48.642;9.008;2023-06-24T11:39:27;33.30;30.10
29007;DHT22;16104;48.642;9.008;2023-06-24T11:44:26;33.50;30.00
29007;DHT22;16104;48.642;9.008;2023-06-24T11:49:21;33.70;29.30
29007;DHT22;16104;48.642;9.008;2023-06-24T11:54:19;33.90;29.90
29007;DHT22;16104;48.642;9.008;2023-06-24T11:59:19;34.00;28.40
29007;DHT22;16104;48.642;9.008;2023-06-24T12:04:15;34.10;28.10
29007;DHT22;16104;48.642;9.008;2023-06-24T12:09:11;34.20;28.20
29007;DHT22;16104;48.642;9.008;2023-06-24T12:14:06;34.30;27.90
29007;DHT22;16104;48.642;9.008;2023-06-24T12:19:02;34.40;27.20
29007;DHT22;16104;48.642;9.008;2023-06-24T12:23:57;34.50;28.00
29007;DHT22;16104;48.642;9.008;2023-06-24T12:28:56;34.70;27.60
29007;DHT22;16104;48.642;9.008;2023-06-24T12:33:52;34.90;26.60
29007;DHT22;16104;48.642;9.008;2023-06-24T12:38:48;35.00;26.80
29007;DHT22;16104;48.642;9.008;2023-06-24T12:43:43;35.20;25.80
29007;DHT22;16104;48.642;9.008;2023-06-24T12:48:39;35.30;25.70
29007;DHT22;16104;48.642;9.008;2023-06-24T12:53:34;35.40;26.10
29007;DHT22;16104;48.642;9.008;2023-06-24T12:58:30;35.60;26.40
29007;DHT22;16104;48.642;9.008;2023-06-24T13:03:25;35.70;25.20
29007;DHT22;16104;48.642;9.008;2023-06-24T13:08:21;35.90;24.90
29007;DHT22;16104;48.642;9.008;2023-06-24T13:13:17;36.00;25.50
29007;DHT22;16104;48.642;9.008;2023-06-24T13:18:12;36.10;24.20
29007;DHT22;16104;48.642;9.008;2023-06-24T13:23:08;36.10;25.10
29007;DHT22;16104;48.642;9.008;2023-06-24T13:28:03;36.10;25.20
29007;DHT22;16104;48.642;9.008;2023-06-24T13:32:59;36.30;24.70
29007;DHT22;16104;48.642;9.008;2023-06-24T13:37:54;36.40;24.60
29007;DHT22;16104;48.642;9.008;2023-06-24T13:42:50;36.60;24.30
29007;DHT22;16104;48.642;9.008;2023-06-24T13:47:46;36.80;24.30
29007;DHT22;16104;48.642;9.008;2023-06-24T13:52:41;36.90;23.30
29007;DHT22;16104;48.642;9.008;2023-06-24T13:57:37;37.00;22.90
29007;DHT22;16104;48.642;9.008;2023-06-24T14:02:32;37.00;22.90
29007;DHT22;16104;48.642;9.008;2023-06-24T14:07:29;37.00;24.00
29007;DHT22;16104;48.642;9.008;2023-06-24T14:12:24;37.00;22.90
29007;DHT22;16104;48.642;9.008;2023-06-24T14:17:20;37.00;23.40
29007;DHT22;16104;48.642;9.008;2023-06-24T14:22:16;37.00;23.20
29007;DHT22;16104;48.642;9.008;2023-06-24T14:27:13;37.10;23.60
29007;DHT22;16104;48.642;9.008;2023-06-24T14:32:08;37.20;23.40
29007;DHT22;16104;48.642;9.008;2023-06-24T14:37:04;37.20;22.60
29007;DHT22;16104;48.642;9.008;2023-06-24T14:41:59;37.10;22.90
29007;DHT22;16104;48.642;9.008;2023-06-24T14:46:55;37.00;23.20
29007;DHT22;16104;48.642;9.008;2023-06-24T14:51:51;37.00;23.00
29007;DHT22;16104;48.642;9.008;2023-06-24T14:56:47;37.00;23.00
29007;DHT22;16104;48.642;9.008;2023-06-24T15:01:43;37.10;22.70
29007;DHT22;16104;48.642;9.008;2023-06-24T15:06:38;37.10;22.60
29007;DHT22;16104;48.642;9.008;2023-06-24T15:11:34;37.00;22.70
29007;DHT22;16104;48.642;9.008;2023-06-24T15:16:29;37.00;22.50
29007;DHT22;16104;48.642;9.008;2023-06-24T15:21:26;37.00;22.50
29007;DHT22;16104;48.642;9.008;2023-06-24T15:26:22;37.00;22.70
29007;DHT22;16104;48.642;9.008;2023-06-24T15:31:17;37.00;22.50
29007;DHT22;16104;48.642;9.008;2023-06-24T15:36:13;36.90;22.70
29007;DHT22;16104;48.642;9.008;2023-06-24T15:41:08;36.80;22.70
29007;DHT22;16104;48.642;9.008;2023-06-24T15:46:04;36.70;22.60
29007;DHT22;16104;48.642;9.008;2023-06-24T15:51:00;36.60;22.70
29007;DHT22;16104;48.642;9.008;2023-06-24T15:55:55;36.60;22.90
29007;DHT22;16104;48.642;9.008;2023-06-24T16:00:51;36.60;22.70
29007;DHT22;16104;48.642;9.008;2023-06-24T16:05:47;36.50;22.90
29007;DHT22;16104;48.642;9.008;2023-06-24T16:10:43;36.50;23.30
29007;DHT22;16104;48.642;9.008;2023-06-24T16:15:38;36.50;22.80
29007;DHT22;16104;48.642;9.008;2023-06-24T16:20:34;36.50;22.70
29007;DHT22;16104;48.642;9.008;2023-06-24T16:25:31;36.40;22.80
29007;DHT22;16104;48.642;9.008;2023-06-24T16:30:29;36.30;22.80
29007;DHT22;16104;48.642;9.008;2023-06-24T16:35:25;36.20;22.60
29007;DHT22;16104;48.642;9.008;2023-06-24T16:40:20;36.10;22.90
29007;DHT22;16104;48.642;9.008;2023-06-24T16:45:16;35.90;22.70
29007;DHT22;16104;48.642;9.008;2023-06-24T16:50:11;35.90;22.90
29007;DHT22;16104;48.642;9.008;2023-06-24T16:55:07;35.80;22.70
29007;DHT22;16104;48.642;9.008;2023-06-24T17:00:03;35.60;22.80
29007;DHT22;16104;48.642;9.008;2023-06-24T17:04:58;35.40;22.80
29007;DHT22;16104;48.642;9.008;2023-06-24T17:09:54;35.20;22.90
29007;DHT22;16104;48.642;9.008;2023-06-24T17:14:50;34.90;23.40
29007;DHT22;16104;48.642;9.008;2023-06-24T17:19:46;34.80;23.40
29007;DHT22;16104;48.642;9.008;2023-06-24T17:24:41;34.70;23.70
29007;DHT22;16104;48.642;9.008;2023-06-24T17:29:37;34.60;23.80
29007;DHT22;16104;48.642;9.008;2023-06-24T17:34:32;34.60;23.90
29007;DHT22;16104;48.642;9.008;2023-06-24T17:39:28;34.60;24.00
29007;DHT22;16104;48.642;9.008;2023-06-24T17:44:23;34.60;23.80
29007;DHT22;16104;48.642;9.008;2023-06-24T17:49:19;34.60;23.70
29007;DHT22;16104;48.642;9.008;2023-06-24T17:54:14;34.60;23.60
29007;DHT22;16104;48.642;9.008;2023-06-24T17:59:10;34.60;23.50
29007;DHT22;16104;48.642;9.008;2023-06-24T18:04:05;34.60;23.70
29007;DHT22;16104;48.642;9.008;2023-06-24T18:09:01;34.60;24.00
29007;DHT22;16104;48.642;9.008;2023-06-24T18:13:56;34.50;23.80
29007;DHT22;16104;48.642;9.008;2023-06-24T18:18:52;34.50;23.70
29007;DHT22;16104;48.642;9.008;2023-06-24T18:23:47;34.40;23.90
29007;DHT22;16104;48.642;9.008;2023-06-24T18:28:43;34.10;24.00
29007;DHT22;16104;48.642;9.008;2023-06-24T18:33:38;33.90;23.90
29007;DHT22;16104;48.642;9.008;2023-06-24T18:38:34;33.60;24.20
29007;DHT22;16104;48.642;9.008;2023-06-24T18:43:29;33.30;24.30
29007;DHT22;16104;48.642;9.008;2023-06-24T18:48:25;33.00;24.50
29007;DHT22;16104;48.642;9.008;2023-06-24T18:53:20;32.70;24.70
29007;DHT22;16104;48.642;9.008;2023-06-24T18:58:16;32.40;24.90
29007;DHT22;16104;48.642;9.008;2023-06-24T19:03:11;32.10;25.20
29007;DHT22;16104;48.642;9.008;2023-06-24T19:08:07;31.80;25.40
29007;DHT22;16104;48.642;9.008;2023-06-24T19:13:03;31.50;25.60
29007;DHT22;16104;48.642;9.008;2023-06-24T19:17:58;31.20;25.80
29007;DHT22;16104;48.642;9.008;2023-06-24T19:22:54;31.00;26.00
29007;DHT22;16104;48.642;9.008;2023-06-24T19:27:49;30.70;26.10
29007;DHT22;16104;48.642;9.008;2023-06-24T19:32:45;30.40;26.20
29007;DHT22;16104;48.642;9.008;2023-06-24T19:37:41;30.10;26.40
29007;DHT22;16104;48.642;9.008;2023-06-24T19:42:38;29.90;26.70
29007;DHT22;16104;48.642;9.008;2023-06-24T19:47:33;29.60;26.90
29007;DHT22;16104;48.642;9.008;2023-06-24T19:52:29;29.40;27.10
29007;DHT22;16104;48.642;9.008;2023-06-24T19:57:24;29.10;27.30
29007;DHT22;16104;48.642;9.008;2023-06-24T20:02:20;28.90;27.60
29007;DHT22;16104;48.642;9.008;2023-06-24T20:07:15;28.70;27.80
29007;DHT22;16104;48.642;9.008;2023-06-24T20:12:11;28.40;28.10
29007;DHT22;16104;48.642;9.008;2023-06-24T20:17:06;28.30;28.40
29007;DHT22;16104;48.642;9.008;2023-06-24T20:22:05;28.10;28.60
29007;DHT22;16104;48.642;9.008;2023-06-24T20:27:00;27.80;28.70
29007;DHT22;16104;48.642;9.008;2023-06-24T20:31:57;27.60;28.90
29007;DHT22;16104;48.642;9.008;2023-06-24T20:36:53;27.40;29.30
29007;DHT22;16104;48.642;9.008;2023-06-24T20:41:48;27.20;29.30
29007;DHT22;16104;48.642;9.008;2023-06-24T20:46:44;27.00;29.70
29007;DHT22;16104;48.642;9.008;2023-06-24T20:51:39;26.90;29.80
29007;DHT22;16104;48.642;9.008;2023-06-24T20:56:40;26.60;30.10
29007;DHT22;16104;48.642;9.008;2023-06-24T21:01:35;26.40;30.20
29007;DHT22;16104;48.642;9.008;2023-06-24T21:06:31;26.30;30.50
29007;DHT22;16104;48.642;9.008;2023-06-24T21:16:24;25.90;31.40
29007;DHT22;16104;48.642;9.008;2023-06-24T21:21:20;25.80;31.90
29007;DHT22;16104;48.642;9.008;2023-06-24T21:26:15;25.60;31.90
29007;DHT22;16104;48.642;9.008;2023-06-24T21:31:11;25.40;32.00
29007;DHT22;16104;48.642;9.008;2023-06-24T21:36:07;25.30;32.50
29007;DHT22;16104;48.642;9.008;2023-06-24T21:41:02;25.20;32.60
29007;DHT22;16104;48.642;9.008;2023-06-24T21:45:58;25.00;32.80
29007;DHT22;16104;48.642;9.008;2023-06-24T21:50:53;24.90;32.90
29007;DHT22;16104;48.642;9.008;2023-06-24T21:55:49;24.80;33.40
29007;DHT22;16104;48.642;9.008;2023-06-24T22:00:44;24.70;33.90
29007;DHT22;16104;48.642;9.008;2023-06-24T22:05:41;24.60;34.40
29007;DHT22;16104;48.642;9.008;2023-06-24T22:10:37;24.50;34.70
29007;DHT22;16104;48.642;9.008;2023-06-24T22:15:32;24.30;35.20
29007;DHT22;16104;48.642;9.008;2023-06-24T22:20:28;24.20;35.70
29007;DHT22;16104;48.642;9.008;2023-06-24T22:25:23;24.10;35.80
29007;DHT22;16104;48.642;9.008;2023-06-24T22:30:19;24.00;36.60
29007;DHT22;16104;48.642;9.008;2023-06-24T22:35:14;23.90;37.00
29007;DHT22;16104;48.642;9.008;2023-06-24T22:40:10;23.80;37.40
29007;DHT22;16104;48.642;9.008;2023-06-24T22:45:06;23.60;37.80
29007;DHT22;16104;48.642;9.008;2023-06-24T22:50:02;23.50;38.20
29007;DHT22;16104;48.642;9.008;2023-06-24T22:54:58;23.40;38.40
29007;DHT22;16104;48.642;9.008;2023-06-24T22:59:54;23.30;38.70
29007;DHT22;16104;48.642;9.008;2023-06-24T23:04:50;23.20;38.70
29007;DHT22;16104;48.642;9.008;2023-06-24T23:09:45;23.10;39.00
29007;DHT22;16104;48.642;9.008;2023-06-24T23:14:41;23.00;39.30
29007;DHT22;16104;48.642;9.008;2023-06-24T23:19:37;22.90;39.70
29007;DHT22;16104;48.642;9.008;2023-06-24T23:24:33;22.80;40.00
29007;DHT22;16104;48.642;9.008;2023-06-24T23:29:31;22.70;40.90
29007;DHT22;16104;48.642;9.008;2023-06-24T23:34:31;22.60;40.60
29007;DHT22;16104;48.642;9.008;2023-06-24T23:39:28;22.50;40.70
29007;DHT22;16104;48.642;9.008;2023-06-24T23:44:24;22.50;40.90
29007;DHT22;16104;48.642;9.008;2023-06-24T23:49:20;22.30;41.40
29007;DHT22;16104;48.642;9.008;2023-06-24T23:54:15;22.30;41.90
29007;DHT22;16104;48.642;9.008;2023-06-24T23:59:11;22.10;42.80
